sensor_id;sensor_type;location;lat;lon;timestamp;temperature;humidity
37530;DHT22;23374;52.758;6.872;2024-03-08T00:00:36;3.50;99.90
37530;DHT22;23374;52.758;6.872;2024-03-08T00:02:58;3.50;99.90
37530;DHT22;23374;52.758;6.872;2024-03-08T00:05:21;3.40;99.90
37530;DHT22;23374;52.758;6.872;2024-03-08T00:07:42;3.40;99.90
37530;DHT22;23374;52.758;6.872;2024-03-08T00:10:06;3.40;99.90
37530;DHT22;23374;52.758;6.872;2024-03-08T00:12:27;3.40;99.90
37530;DHT22;23374;52.758;6.872;2024-03-08T00:14:48;3.40;99.90
37530;DHT22;23374;52.758;6.872;2024-03-08T00:17:08;3.30;99.90
37530;DHT22;23374;52.758;6.872;2024-03-08T00:19:29;3.30;99.90
37530;DHT22;23374;52.758;6.872;2024-03-08T00:21:49;3.30;99.90
37530;DHT22;23374;52.758;6.872;2024-03-08T00:24:10;3.30;99.90
37530;DHT22;23374;52.758;6.872;2024-03-08T00:26:31;3.30;99.90
37530;DHT22;23374;52.758;6.872;2024-03-08T00:28:53;3.30;99.90
37530;DHT22;23374;52.758;6.872;2024-03-08T00:31:14;3.30;99.90
37530;DHT22;23374;52.758;6.872;2024-03-08T00:33:37;3.20;99.90
37530;DHT22;23374;52.758;6.872;2024-03-08T00:35:57;3.20;99.90
37530;DHT22;23374;52.758;6.872;2024-03-08T00:38:18;3.20;99.90
37530;DHT22;23374;52.758;6.872;2024-03-08T00:40:39;3.20;99.90
37530;DHT22;23374;52.758;6.872;2024-03-08T00:43:00;3.20;99.90
37530;DHT22;23374;52.758;6.872;2024-03-08T00:45:23;3.20;99.90
37530;DHT22;23374;52.758;6.872;2024-03-08T00:47:44;3.10;99.90
37530;DHT22;23374;52.758;6.872;2024-03-08T00:50:05;3.10;99.90
37530;DHT22;23374;52.758;6.872;2024-03-08T00:52:26;3.10;99.90
37530;DHT22;23374;52.758;6.872;2024-03-08T00:54:47;3.10;99.90
37530;DHT22;23374;52.758;6.872;2024-03-08T00:57:08;3.10;99.90
37530;DHT22;23374;52.758;6.872;2024-03-08T00:59:29;3.10;99.90
37530;DHT22;23374;52.758;6.872;2024-03-08T01:01:50;3.10;99.90
37530;DHT22;23374;52.758;6.872;2024-03-08T01:04:11;3.10;99.90
37530;DHT22;23374;52.758;6.872;2024-03-08T01:06:31;3.10;99.90
37530;DHT22;23374;52.758;6.872;2024-03-08T01:08:52;3.10;99.90
37530;DHT22;23374;52.758;6.872;2024-03-08T01:11:13;3.00;99.90
37530;DHT22;23374;52.758;6.872;2024-03-08T01:13:35;3.00;99.90
37530;DHT22;23374;52.758;6.872;2024-03-08T01:15:56;2.90;99.90
37530;DHT22;23374;52.758;6.872;2024-03-08T01:18:17;2.90;99.90
37530;DHT22;23374;52.758;6.872;2024-03-08T01:20:37;2.80;1.00
37530;DHT22;23374;52.758;6.872;2024-03-08T01:22:58;2.80;1.00
37530;DHT22;23374;52.758;6.872;2024-03-08T01:25:18;2.80;1.00
37530;DHT22;23374;52.758;6.872;2024-03-08T01:27:38;2.80;1.00
37530;DHT22;23374;52.758;6.872;2024-03-08T01:29:59;2.80;99.90
37530;DHT22;23374;52.758;6.872;2024-03-08T01:32:19;2.80;1.00
37530;DHT22;23374;52.758;6.872;2024-03-08T01:34:34;2.70;99.90
37530;DHT22;23374;52.758;6.872;2024-03-08T01:36:54;2.80;1.00
37530;DHT22;23374;52.758;6.872;2024-03-08T01:39:16;2.70;1.00
37530;DHT22;23374;52.758;6.872;2024-03-08T01:41:37;2.70;99.90
37530;DHT22;23374;52.758;6.872;2024-03-08T01:43:57;2.70;1.00
37530;DHT22;23374;52.758;6.872;2024-03-08T01:46:21;2.70;99.90
37530;DHT22;23374;52.758;6.872;2024-03-08T01:48:45;2.70;99.90
37530;DHT22;23374;52.758;6.872;2024-03-08T01:51:06;2.70;99.90
37530;DHT22;23374;52.758;6.872;2024-03-08T01:53:27;2.70;99.90
37530;DHT22;23374;52.758;6.872;2024-03-08T01:55:49;2.60;99.90
37530;DHT22;23374;52.758;6.872;2024-03-08T01:58:10;2.60;99.90
37530;DHT22;23374;52.758;6.872;2024-03-08T02:00:35;2.60;1.00
37530;DHT22;23374;52.758;6.872;2024-03-08T02:02:57;2.60;99.90
37530;DHT22;23374;52.758;6.872;2024-03-08T02:05:17;2.70;99.90
37530;DHT22;23374;52.758;6.872;2024-03-08T02:07:38;2.60;99.90
37530;DHT22;23374;52.758;6.872;2024-03-08T02:10:06;2.60;99.90
37530;DHT22;23374;52.758;6.872;2024-03-08T02:12:27;2.60;99.90
37530;DHT22;23374;52.758;6.872;2024-03-08T02:14:48;2.60;99.90
37530;DHT22;23374;52.758;6.872;2024-03-08T02:17:09;2.60;1.00
37530;DHT22;23374;52.758;6.872;2024-03-08T02:19:29;2.60;99.90
37530;DHT22;23374;52.758;6.872;2024-03-08T02:21:50;2.50;99.90
37530;DHT22;23374;52.758;6.872;2024-03-08T02:24:10;2.50;99.90
37530;DHT22;23374;52.758;6.872;2024-03-08T02:26:31;2.50;1.00
37530;DHT22;23374;52.758;6.872;2024-03-08T02:28:51;2.50;99.90
37530;DHT22;23374;52.758;6.872;2024-03-08T02:31:11;2.50;99.90
37530;DHT22;23374;52.758;6.872;2024-03-08T02:33:32;2.50;1.00
37530;DHT22;23374;52.758;6.872;2024-03-08T02:35:53;2.40;99.90
37530;DHT22;23374;52.758;6.872;2024-03-08T02:38:18;2.40;1.00
37530;DHT22;23374;52.758;6.872;2024-03-08T02:40:38;2.40;99.90
37530;DHT22;23374;52.758;6.872;2024-03-08T02:42:59;2.40;99.90
37530;DHT22;23374;52.758;6.872;2024-03-08T02:45:19;2.40;1.00
37530;DHT22;23374;52.758;6.872;2024-03-08T02:47:40;2.40;99.90
37530;DHT22;23374;52.758;6.872;2024-03-08T02:50:01;2.40;99.90
37530;DHT22;23374;52.758;6.872;2024-03-08T02:52:27;2.40;1.00
37530;DHT22;23374;52.758;6.872;2024-03-08T02:54:48;2.40;99.90
37530;DHT22;23374;52.758;6.872;2024-03-08T02:58:30;2.40;99.90
37530;DHT22;23374;52.758;6.872;2024-03-08T03:00:50;2.30;99.90
37530;DHT22;23374;52.758;6.872;2024-03-08T03:03:11;2.30;1.00
37530;DHT22;23374;52.758;6.872;2024-03-08T03:05:31;2.30;99.90
37530;DHT22;23374;52.758;6.872;2024-03-08T03:07:52;2.30;1.00
37530;DHT22;23374;52.758;6.872;2024-03-08T03:10:12;2.30;99.90
37530;DHT22;23374;52.758;6.872;2024-03-08T03:12:33;2.30;99.90
37530;DHT22;23374;52.758;6.872;2024-03-08T03:14:54;2.30;99.90
37530;DHT22;23374;52.758;6.872;2024-03-08T03:17:16;2.20;99.90
37530;DHT22;23374;52.758;6.872;2024-03-08T03:19:37;2.30;99.90
37530;DHT22;23374;52.758;6.872;2024-03-08T03:21:57;2.20;99.90
37530;DHT22;23374;52.758;6.872;2024-03-08T03:24:18;2.20;1.00
37530;DHT22;23374;52.758;6.872;2024-03-08T03:26:38;2.20;99.90
37530;DHT22;23374;52.758;6.872;2024-03-08T03:28:59;2.20;99.90
37530;DHT22;23374;52.758;6.872;2024-03-08T03:31:20;2.20;99.90
37530;DHT22;23374;52.758;6.872;2024-03-08T03:33:44;2.20;99.90
37530;DHT22;23374;52.758;6.872;2024-03-08T03:36:04;2.20;99.90
37530;DHT22;23374;52.758;6.872;2024-03-08T03:38:30;2.20;99.90
37530;DHT22;23374;52.758;6.872;2024-03-08T03:40:50;2.20;99.90
37530;DHT22;23374;52.758;6.872;2024-03-08T03:43:12;2.10;99.90
37530;DHT22;23374;52.758;6.872;2024-03-08T03:45:33;2.10;99.90
37530;DHT22;23374;52.758;6.872;2024-03-08T03:47:56;2.10;99.90
37530;DHT22;23374;52.758;6.872;2024-03-08T03:50:20;2.10;99.90
37530;DHT22;23374;52.758;6.872;2024-03-08T03:52:41;2.10;99.90
37530;DHT22;23374;52.758;6.872;2024-03-08T03:55:03;2.10;99.90
37530;DHT22;23374;52.758;6.872;2024-03-08T03:57:24;2.10;99.90
37530;DHT22;23374;52.758;6.872;2024-03-08T03:59:45;2.10;99.90
37530;DHT22;23374;52.758;6.872;2024-03-08T04:02:07;2.10;99.90
37530;DHT22;23374;52.758;6.872;2024-03-08T04:04:28;2.00;99.90
37530;DHT22;23374;52.758;6.872;2024-03-08T04:06:49;2.00;99.90
37530;DHT22;23374;52.758;6.872;2024-03-08T04:09:11;2.00;1.00
37530;DHT22;23374;52.758;6.872;2024-03-08T04:11:32;2.00;99.90
37530;DHT22;23374;52.758;6.872;2024-03-08T04:13:52;2.00;1.00
37530;DHT22;23374;52.758;6.872;2024-03-08T04:16:15;2.00;99.90
37530;DHT22;23374;52.758;6.872;2024-03-08T04:18:35;2.00;99.90
37530;DHT22;23374;52.758;6.872;2024-03-08T04:20:56;2.00;99.90
37530;DHT22;23374;52.758;6.872;2024-03-08T04:23:16;2.00;99.90
37530;DHT22;23374;52.758;6.872;2024-03-08T04:25:38;2.00;99.90
37530;DHT22;23374;52.758;6.872;2024-03-08T04:27:58;2.00;99.90
37530;DHT22;23374;52.758;6.872;2024-03-08T04:30:18;1.90;99.90
37530;DHT22;23374;52.758;6.872;2024-03-08T04:32:41;1.90;99.90
37530;DHT22;23374;52.758;6.872;2024-03-08T04:35:03;1.90;99.90
37530;DHT22;23374;52.758;6.872;2024-03-08T04:37:24;1.90;99.90
37530;DHT22;23374;52.758;6.872;2024-03-08T04:39:45;1.90;99.90
37530;DHT22;23374;52.758;6.872;2024-03-08T04:42:06;1.90;99.90
37530;DHT22;23374;52.758;6.872;2024-03-08T04:44:31;2.00;99.90
37530;DHT22;23374;52.758;6.872;2024-03-08T04:46:51;2.00;99.90
37530;DHT22;23374;52.758;6.872;2024-03-08T04:49:12;1.90;99.90
37530;DHT22;23374;52.758;6.872;2024-03-08T04:51:33;1.90;99.90
37530;DHT22;23374;52.758;6.872;2024-03-08T04:53:54;1.90;99.90
37530;DHT22;23374;52.758;6.872;2024-03-08T04:56:15;1.90;99.90
37530;DHT22;23374;52.758;6.872;2024-03-08T04:58:36;1.90;99.90
37530;DHT22;23374;52.758;6.872;2024-03-08T05:00:56;2.00;99.90
37530;DHT22;23374;52.758;6.872;2024-03-08T05:03:17;2.00;99.90
37530;DHT22;23374;52.758;6.872;2024-03-08T05:05:37;1.90;99.90
37530;DHT22;23374;52.758;6.872;2024-03-08T05:07:58;1.90;99.90
37530;DHT22;23374;52.758;6.872;2024-03-08T05:10:19;1.90;99.90
37530;DHT22;23374;52.758;6.872;2024-03-08T05:12:39;1.90;99.90
37530;DHT22;23374;52.758;6.872;2024-03-08T05:15:00;1.80;99.90
37530;DHT22;23374;52.758;6.872;2024-03-08T05:17:20;1.80;99.90
37530;DHT22;23374;52.758;6.872;2024-03-08T05:19:41;1.80;99.90
37530;DHT22;23374;52.758;6.872;2024-03-08T05:22:01;1.80;99.90
37530;DHT22;23374;52.758;6.872;2024-03-08T05:24:22;1.80;99.90
37530;DHT22;23374;52.758;6.872;2024-03-08T05:26:43;1.70;99.90
37530;DHT22;23374;52.758;6.872;2024-03-08T05:29:04;1.70;99.90
37530;DHT22;23374;52.758;6.872;2024-03-08T05:31:24;1.70;99.90
37530;DHT22;23374;52.758;6.872;2024-03-08T05:33:44;1.70;99.90
37530;DHT22;23374;52.758;6.872;2024-03-08T05:36:06;1.70;99.90
37530;DHT22;23374;52.758;6.872;2024-03-08T05:38:26;1.70;99.90
37530;DHT22;23374;52.758;6.872;2024-03-08T05:40:47;1.60;99.90
37530;DHT22;23374;52.758;6.872;2024-03-08T05:43:07;1.70;99.90
37530;DHT22;23374;52.758;6.872;2024-03-08T05:45:28;1.60;99.90
37530;DHT22;23374;52.758;6.872;2024-03-08T05:47:49;1.60;99.90
37530;DHT22;23374;52.758;6.872;2024-03-08T05:50:09;1.50;99.90
37530;DHT22;23374;52.758;6.872;2024-03-08T05:52:31;1.60;99.90
37530;DHT22;23374;52.758;6.872;2024-03-08T05:54:52;1.50;99.90
37530;DHT22;23374;52.758;6.872;2024-03-08T05:57:13;1.50;99.90
37530;DHT22;23374;52.758;6.872;2024-03-08T05:59:37;1.50;99.90
37530;DHT22;23374;52.758;6.872;2024-03-08T06:01:57;1.50;99.90
37530;DHT22;23374;52.758;6.872;2024-03-08T06:04:17;1.50;99.90
37530;DHT22;23374;52.758;6.872;2024-03-08T06:06:38;1.40;99.90
37530;DHT22;23374;52.758;6.872;2024-03-08T06:08:59;1.40;99.90
37530;DHT22;23374;52.758;6.872;2024-03-08T06:11:20;1.40;99.90
37530;DHT22;23374;52.758;6.872;2024-03-08T06:13:41;1.40;99.90
37530;DHT22;23374;52.758;6.872;2024-03-08T06:16:02;1.40;99.90
37530;DHT22;23374;52.758;6.872;2024-03-08T06:18:25;1.40;99.90
37530;DHT22;23374;52.758;6.872;2024-03-08T06:20:46;1.50;99.90
37530;DHT22;23374;52.758;6.872;2024-03-08T06:23:06;1.40;99.90
37530;DHT22;23374;52.758;6.872;2024-03-08T06:25:27;1.50;99.90
37530;DHT22;23374;52.758;6.872;2024-03-08T06:27:47;1.50;99.90
37530;DHT22;23374;52.758;6.872;2024-03-08T06:30:08;1.50;99.90
37530;DHT22;23374;52.758;6.872;2024-03-08T06:32:30;1.50;99.90
37530;DHT22;23374;52.758;6.872;2024-03-08T06:34:51;1.50;99.90
37530;DHT22;23374;52.758;6.872;2024-03-08T06:37:11;1.50;99.90
37530;DHT22;23374;52.758;6.872;2024-03-08T06:39:32;1.50;99.90
37530;DHT22;23374;52.758;6.872;2024-03-08T06:41:54;1.50;99.90
37530;DHT22;23374;52.758;6.872;2024-03-08T06:44:14;1.50;99.90
37530;DHT22;23374;52.758;6.872;2024-03-08T06:46:36;1.50;99.90
37530;DHT22;23374;52.758;6.872;2024-03-08T06:48:58;1.50;99.90
37530;DHT22;23374;52.758;6.872;2024-03-08T06:51:19;1.50;99.90
37530;DHT22;23374;52.758;6.872;2024-03-08T06:53:39;1.50;99.90
37530;DHT22;23374;52.758;6.872;2024-03-08T06:56:00;1.50;99.90
37530;DHT22;23374;52.758;6.872;2024-03-08T06:58:22;1.60;99.90
37530;DHT22;23374;52.758;6.872;2024-03-08T07:00:42;1.70;99.90
37530;DHT22;23374;52.758;6.872;2024-03-08T07:03:08;1.70;99.90
37530;DHT22;23374;52.758;6.872;2024-03-08T07:05:32;1.60;99.90
37530;DHT22;23374;52.758;6.872;2024-03-08T07:07:52;1.70;99.90
37530;DHT22;23374;52.758;6.872;2024-03-08T07:10:14;1.70;99.90
37530;DHT22;23374;52.758;6.872;2024-03-08T07:12:35;1.80;99.90
37530;DHT22;23374;52.758;6.872;2024-03-08T07:14:56;1.80;99.90
37530;DHT22;23374;52.758;6.872;2024-03-08T07:17:17;1.80;99.90
37530;DHT22;23374;52.758;6.872;2024-03-08T07:19:38;1.90;99.90
37530;DHT22;23374;52.758;6.872;2024-03-08T07:21:58;1.90;99.90
37530;DHT22;23374;52.758;6.872;2024-03-08T07:24:19;1.90;99.90
37530;DHT22;23374;52.758;6.872;2024-03-08T07:26:54;2.00;99.90
37530;DHT22;23374;52.758;6.872;2024-03-08T07:29:16;2.00;42.30
37530;DHT22;23374;52.758;6.872;2024-03-08T07:31:36;2.10;99.90
37530;DHT22;23374;52.758;6.872;2024-03-08T07:34:06;2.10;21.50
37530;DHT22;23374;52.758;6.872;2024-03-08T07:36:27;2.10;1.00
37530;DHT22;23374;52.758;6.872;2024-03-08T07:38:48;2.20;1.00
37530;DHT22;23374;52.758;6.872;2024-03-08T07:41:08;2.30;1.00
37530;DHT22;23374;52.758;6.872;2024-03-08T07:43:29;2.30;1.00
37530;DHT22;23374;52.758;6.872;2024-03-08T07:45:49;2.30;1.00
37530;DHT22;23374;52.758;6.872;2024-03-08T07:48:11;2.40;1.00
37530;DHT22;23374;52.758;6.872;2024-03-08T07:50:33;2.50;1.00
37530;DHT22;23374;52.758;6.872;2024-03-08T07:52:53;2.50;1.00
37530;DHT22;23374;52.758;6.872;2024-03-08T07:55:15;2.60;1.00
37530;DHT22;23374;52.758;6.872;2024-03-08T07:57:35;2.60;1.00
37530;DHT22;23374;52.758;6.872;2024-03-08T07:59:58;2.60;1.00
37530;DHT22;23374;52.758;6.872;2024-03-08T08:02:18;2.60;1.00
37530;DHT22;23374;52.758;6.872;2024-03-08T08:04:39;2.70;1.00
37530;DHT22;23374;52.758;6.872;2024-03-08T08:07:00;2.70;1.00
37530;DHT22;23374;52.758;6.872;2024-03-08T08:09:20;2.80;1.00
37530;DHT22;23374;52.758;6.872;2024-03-08T08:11:48;2.90;1.00
37530;DHT22;23374;52.758;6.872;2024-03-08T08:14:10;3.00;1.00
37530;DHT22;23374;52.758;6.872;2024-03-08T08:16:30;3.00;1.00
37530;DHT22;23374;52.758;6.872;2024-03-08T08:18:51;3.00;1.00
37530;DHT22;23374;52.758;6.872;2024-03-08T08:21:13;3.10;1.00
37530;DHT22;23374;52.758;6.872;2024-03-08T08:23:33;3.10;1.00
37530;DHT22;23374;52.758;6.872;2024-03-08T08:25:55;3.20;1.00
37530;DHT22;23374;52.758;6.872;2024-03-08T08:28:19;3.10;1.00
37530;DHT22;23374;52.758;6.872;2024-03-08T08:30:39;3.20;1.00
37530;DHT22;23374;52.758;6.872;2024-03-08T08:33:00;3.30;1.00
37530;DHT22;23374;52.758;6.872;2024-03-08T08:35:20;3.40;1.00
37530;DHT22;23374;52.758;6.872;2024-03-08T08:37:42;3.40;1.00
37530;DHT22;23374;52.758;6.872;2024-03-08T08:40:06;3.50;1.00
37530;DHT22;23374;52.758;6.872;2024-03-08T08:42:30;3.50;1.00
37530;DHT22;23374;52.758;6.872;2024-03-08T08:44:51;3.50;99.90
37530;DHT22;23374;52.758;6.872;2024-03-08T08:47:12;3.60;1.00
37530;DHT22;23374;52.758;6.872;2024-03-08T08:49:33;3.70;1.00
37530;DHT22;23374;52.758;6.872;2024-03-08T08:51:54;3.70;99.90
37530;DHT22;23374;52.758;6.872;2024-03-08T08:54:14;3.80;99.90
37530;DHT22;23374;52.758;6.872;2024-03-08T08:56:37;3.80;99.90
37530;DHT22;23374;52.758;6.872;2024-03-08T08:58:58;3.90;99.90
37530;DHT22;23374;52.758;6.872;2024-03-08T09:01:18;4.00;99.90
37530;DHT22;23374;52.758;6.872;2024-03-08T09:03:38;4.00;99.90
37530;DHT22;23374;52.758;6.872;2024-03-08T09:06:01;4.00;99.90
37530;DHT22;23374;52.758;6.872;2024-03-08T09:08:22;4.10;99.90
37530;DHT22;23374;52.758;6.872;2024-03-08T09:10:43;4.10;99.90
37530;DHT22;23374;52.758;6.872;2024-03-08T09:13:04;4.20;99.90
37530;DHT22;23374;52.758;6.872;2024-03-08T09:15:24;4.20;99.90
37530;DHT22;23374;52.758;6.872;2024-03-08T09:17:48;4.30;97.60
37530;DHT22;23374;52.758;6.872;2024-03-08T09:20:10;4.20;1.00
37530;DHT22;23374;52.758;6.872;2024-03-08T09:22:35;4.20;18.00
37530;DHT22;23374;52.758;6.872;2024-03-08T09:24:55;4.20;35.10
37530;DHT22;23374;52.758;6.872;2024-03-08T09:27:17;4.30;1.00
37530;DHT22;23374;52.758;6.872;2024-03-08T09:29:38;4.30;64.80
37530;DHT22;23374;52.758;6.872;2024-03-08T09:33:20;4.30;1.00
37530;DHT22;23374;52.758;6.872;2024-03-08T09:35:41;4.40;50.10
37530;DHT22;23374;52.758;6.872;2024-03-08T09:38:01;4.50;50.80
37530;DHT22;23374;52.758;6.872;2024-03-08T09:40:24;4.60;99.10
37530;DHT22;23374;52.758;6.872;2024-03-08T09:42:49;4.60;54.40
37530;DHT22;23374;52.758;6.872;2024-03-08T09:45:11;4.60;1.00
37530;DHT22;23374;52.758;6.872;2024-03-08T09:47:32;4.70;90.00
37530;DHT22;23374;52.758;6.872;2024-03-08T09:49:57;4.80;1.00
37530;DHT22;23374;52.758;6.872;2024-03-08T09:52:18;4.90;13.30
37530;DHT22;23374;52.758;6.872;2024-03-08T09:54:40;4.90;1.00
37530;DHT22;23374;52.758;6.872;2024-03-08T09:57:04;5.00;1.00
37530;DHT22;23374;52.758;6.872;2024-03-08T09:59:28;5.00;1.00
37530;DHT22;23374;52.758;6.872;2024-03-08T10:02:14;5.00;1.00
37530;DHT22;23374;52.758;6.872;2024-03-08T10:04:35;5.10;1.00
37530;DHT22;23374;52.758;6.872;2024-03-08T10:07:00;5.20;16.30
37530;DHT22;23374;52.758;6.872;2024-03-08T10:09:21;5.30;44.40
37530;DHT22;23374;52.758;6.872;2024-03-08T10:11:41;5.40;1.00
37530;DHT22;23374;52.758;6.872;2024-03-08T10:14:02;5.40;1.00
37530;DHT22;23374;52.758;6.872;2024-03-08T10:16:22;5.40;1.00
37530;DHT22;23374;52.758;6.872;2024-03-08T10:18:47;5.50;1.00
37530;DHT22;23374;52.758;6.872;2024-03-08T10:21:09;5.60;1.00
37530;DHT22;23374;52.758;6.872;2024-03-08T10:23:33;5.60;1.00
37530;DHT22;23374;52.758;6.872;2024-03-08T10:25:54;5.60;1.00
37530;DHT22;23374;52.758;6.872;2024-03-08T10:28:18;5.60;1.00
37530;DHT22;23374;52.758;6.872;2024-03-08T10:30:38;5.70;1.00
37530;DHT22;23374;52.758;6.872;2024-03-08T10:33:25;5.70;1.00
37530;DHT22;23374;52.758;6.872;2024-03-08T10:35:46;5.80;1.00
37530;DHT22;23374;52.758;6.872;2024-03-08T10:38:10;5.80;1.00
37530;DHT22;23374;52.758;6.872;2024-03-08T10:40:32;5.80;1.00
37530;DHT22;23374;52.758;6.872;2024-03-08T10:42:57;5.90;1.00
37530;DHT22;23374;52.758;6.872;2024-03-08T10:45:40;5.90;1.00
37530;DHT22;23374;52.758;6.872;2024-03-08T10:49:17;5.90;1.00
37530;DHT22;23374;52.758;6.872;2024-03-08T10:51:39;6.00;1.00
37530;DHT22;23374;52.758;6.872;2024-03-08T10:54:02;6.00;1.00
37530;DHT22;23374;52.758;6.872;2024-03-08T10:56:23;6.00;1.00
37530;DHT22;23374;52.758;6.872;2024-03-08T10:58:47;6.10;1.00
37530;DHT22;23374;52.758;6.872;2024-03-08T11:01:08;6.10;1.00
37530;DHT22;23374;52.758;6.872;2024-03-08T11:03:48;6.20;1.00
37530;DHT22;23374;52.758;6.872;2024-03-08T11:06:29;6.30;1.00
37530;DHT22;23374;52.758;6.872;2024-03-08T11:08:50;6.40;1.00
37530;DHT22;23374;52.758;6.872;2024-03-08T11:11:31;6.50;1.00
37530;DHT22;23374;52.758;6.872;2024-03-08T11:13:53;6.50;1.00
37530;DHT22;23374;52.758;6.872;2024-03-08T11:16:59;6.50;1.00
37530;DHT22;23374;52.758;6.872;2024-03-08T11:19:26;6.60;1.00
37530;DHT22;23374;52.758;6.872;2024-03-08T11:22:01;6.70;1.00
37530;DHT22;23374;52.758;6.872;2024-03-08T11:24:22;6.80;1.00
37530;DHT22;23374;52.758;6.872;2024-03-08T11:26:46;6.80;1.00
37530;DHT22;23374;52.758;6.872;2024-03-08T11:29:44;6.90;1.00
37530;DHT22;23374;52.758;6.872;2024-03-08T11:32:12;7.00;1.00
37530;DHT22;23374;52.758;6.872;2024-03-08T11:34:34;7.10;1.00
37530;DHT22;23374;52.758;6.872;2024-03-08T11:36:55;7.10;99.90
37530;DHT22;23374;52.758;6.872;2024-03-08T11:39:16;7.10;1.00
37530;DHT22;23374;52.758;6.872;2024-03-08T11:41:37;7.20;1.00
37530;DHT22;23374;52.758;6.872;2024-03-08T11:44:04;7.20;99.90
37530;DHT22;23374;52.758;6.872;2024-03-08T11:46:25;7.30;1.00
37530;DHT22;23374;52.758;6.872;2024-03-08T11:48:48;7.30;99.90
37530;DHT22;23374;52.758;6.872;2024-03-08T11:51:10;7.40;99.90
37530;DHT22;23374;52.758;6.872;2024-03-08T11:53:32;7.40;99.60
37530;DHT22;23374;52.758;6.872;2024-03-08T11:55:52;7.40;84.20
37530;DHT22;23374;52.758;6.872;2024-03-08T11:58:13;7.40;45.90
37530;DHT22;23374;52.758;6.872;2024-03-08T12:00:33;7.40;99.90
37530;DHT22;23374;52.758;6.872;2024-03-08T12:03:06;7.50;99.90
37530;DHT22;23374;52.758;6.872;2024-03-08T12:05:27;7.50;99.90
37530;DHT22;23374;52.758;6.872;2024-03-08T12:07:58;7.60;52.90
37530;DHT22;23374;52.758;6.872;2024-03-08T12:10:22;7.60;78.50
37530;DHT22;23374;52.758;6.872;2024-03-08T12:12:54;7.60;99.90
37530;DHT22;23374;52.758;6.872;2024-03-08T12:15:19;7.70;99.90
37530;DHT22;23374;52.758;6.872;2024-03-08T12:17:40;7.70;75.40
37530;DHT22;23374;52.758;6.872;2024-03-08T12:20:25;7.80;99.90
37530;DHT22;23374;52.758;6.872;2024-03-08T12:22:55;7.80;1.00
37530;DHT22;23374;52.758;6.872;2024-03-08T12:25:19;7.90;24.80
37530;DHT22;23374;52.758;6.872;2024-03-08T12:27:41;7.90;98.50
37530;DHT22;23374;52.758;6.872;2024-03-08T12:30:26;7.90;13.90
37530;DHT22;23374;52.758;6.872;2024-03-08T12:32:58;8.00;70.20
37530;DHT22;23374;52.758;6.872;2024-03-08T12:35:20;8.10;19.00
37530;DHT22;23374;52.758;6.872;2024-03-08T12:37:42;8.10;8.30
37530;DHT22;23374;52.758;6.872;2024-03-08T12:40:09;8.10;69.80
37530;DHT22;23374;52.758;6.872;2024-03-08T12:42:30;8.20;36.30
37530;DHT22;23374;52.758;6.872;2024-03-08T12:44:51;8.20;1.00
37530;DHT22;23374;52.758;6.872;2024-03-08T12:47:12;8.30;8.90
37530;DHT22;23374;52.758;6.872;2024-03-08T12:49:33;8.30;1.00
37530;DHT22;23374;52.758;6.872;2024-03-08T12:51:53;8.40;99.90
37530;DHT22;23374;52.758;6.872;2024-03-08T12:54:13;8.40;1.00
37530;DHT22;23374;52.758;6.872;2024-03-08T12:56:35;8.50;3.60
37530;DHT22;23374;52.758;6.872;2024-03-08T12:58:57;8.50;1.00
37530;DHT22;23374;52.758;6.872;2024-03-08T13:01:18;8.50;1.00
37530;DHT22;23374;52.758;6.872;2024-03-08T13:03:38;8.50;68.30
37530;DHT22;23374;52.758;6.872;2024-03-08T13:05:59;8.50;1.00
37530;DHT22;23374;52.758;6.872;2024-03-08T13:08:20;8.50;1.00
37530;DHT22;23374;52.758;6.872;2024-03-08T13:10:44;8.50;1.00
37530;DHT22;23374;52.758;6.872;2024-03-08T13:13:05;8.50;1.00
37530;DHT22;23374;52.758;6.872;2024-03-08T13:15:26;8.50;1.00
37530;DHT22;23374;52.758;6.872;2024-03-08T13:17:50;8.60;1.00
37530;DHT22;23374;52.758;6.872;2024-03-08T13:20:11;8.60;1.00
37530;DHT22;23374;52.758;6.872;2024-03-08T13:22:36;8.60;1.00
37530;DHT22;23374;52.758;6.872;2024-03-08T13:24:57;8.60;1.00
37530;DHT22;23374;52.758;6.872;2024-03-08T13:27:22;8.60;1.00
37530;DHT22;23374;52.758;6.872;2024-03-08T13:29:45;8.60;1.00
37530;DHT22;23374;52.758;6.872;2024-03-08T13:32:06;8.70;1.00
37530;DHT22;23374;52.758;6.872;2024-03-08T13:34:27;8.70;1.00
37530;DHT22;23374;52.758;6.872;2024-03-08T13:36:49;8.70;1.00
37530;DHT22;23374;52.758;6.872;2024-03-08T13:39:11;8.70;1.00
37530;DHT22;23374;52.758;6.872;2024-03-08T13:41:35;8.70;1.00
37530;DHT22;23374;52.758;6.872;2024-03-08T13:43:55;8.70;1.00
37530;DHT22;23374;52.758;6.872;2024-03-08T13:46:17;8.80;1.00
37530;DHT22;23374;52.758;6.872;2024-03-08T13:48:37;8.70;1.00
37530;DHT22;23374;52.758;6.872;2024-03-08T13:50:58;8.70;1.00
37530;DHT22;23374;52.758;6.872;2024-03-08T13:53:18;8.70;1.00
37530;DHT22;23374;52.758;6.872;2024-03-08T13:55:39;8.80;1.00
37530;DHT22;23374;52.758;6.872;2024-03-08T13:58:01;8.80;1.00
37530;DHT22;23374;52.758;6.872;2024-03-08T14:00:22;8.80;1.00
37530;DHT22;23374;52.758;6.872;2024-03-08T14:02:45;8.90;1.00
37530;DHT22;23374;52.758;6.872;2024-03-08T14:05:07;8.90;1.00
37530;DHT22;23374;52.758;6.872;2024-03-08T14:07:29;8.90;1.00
37530;DHT22;23374;52.758;6.872;2024-03-08T14:09:50;8.90;1.00
37530;DHT22;23374;52.758;6.872;2024-03-08T14:12:13;8.90;1.00
37530;DHT22;23374;52.758;6.872;2024-03-08T14:14:34;9.00;1.00
37530;DHT22;23374;52.758;6.872;2024-03-08T14:16:57;8.90;1.00
37530;DHT22;23374;52.758;6.872;2024-03-08T14:19:20;9.00;1.00
37530;DHT22;23374;52.758;6.872;2024-03-08T14:21:40;9.00;1.00
37530;DHT22;23374;52.758;6.872;2024-03-08T14:24:02;8.90;1.00
37530;DHT22;23374;52.758;6.872;2024-03-08T14:26:24;8.90;1.00
37530;DHT22;23374;52.758;6.872;2024-03-08T14:28:46;8.90;1.00
37530;DHT22;23374;52.758;6.872;2024-03-08T14:31:06;8.80;1.00
37530;DHT22;23374;52.758;6.872;2024-03-08T14:33:31;8.90;1.00
37530;DHT22;23374;52.758;6.872;2024-03-08T14:35:51;8.90;1.00
37530;DHT22;23374;52.758;6.872;2024-03-08T14:38:12;8.90;1.00
37530;DHT22;23374;52.758;6.872;2024-03-08T14:40:32;8.90;1.00
37530;DHT22;23374;52.758;6.872;2024-03-08T14:42:53;8.90;1.00
37530;DHT22;23374;52.758;6.872;2024-03-08T14:45:14;9.00;1.00
37530;DHT22;23374;52.758;6.872;2024-03-08T14:47:34;8.90;1.00
37530;DHT22;23374;52.758;6.872;2024-03-08T14:49:55;8.90;1.00
37530;DHT22;23374;52.758;6.872;2024-03-08T14:52:15;9.00;1.00
37530;DHT22;23374;52.758;6.872;2024-03-08T14:54:48;8.90;1.00
37530;DHT22;23374;52.758;6.872;2024-03-08T14:57:08;8.90;1.00
37530;DHT22;23374;52.758;6.872;2024-03-08T14:59:29;9.00;1.00
37530;DHT22;23374;52.758;6.872;2024-03-08T15:01:51;9.00;1.00
37530;DHT22;23374;52.758;6.872;2024-03-08T15:04:11;9.00;1.00
37530;DHT22;23374;52.758;6.872;2024-03-08T15:06:32;9.00;1.00
37530;DHT22;23374;52.758;6.872;2024-03-08T15:08:53;9.00;1.00
37530;DHT22;23374;52.758;6.872;2024-03-08T15:11:16;9.10;1.00
37530;DHT22;23374;52.758;6.872;2024-03-08T15:13:41;9.10;1.00
37530;DHT22;23374;52.758;6.872;2024-03-08T15:16:01;9.10;1.00
37530;DHT22;23374;52.758;6.872;2024-03-08T15:18:26;9.10;1.00
37530;DHT22;23374;52.758;6.872;2024-03-08T15:20:54;9.20;1.00
37530;DHT22;23374;52.758;6.872;2024-03-08T15:23:15;9.20;1.00